createdAt,value
2023-05-12T00:00:45.223Z,45.49
2023-05-12T00:03:16.720Z,45.54
2023-05-12T00:05:47.460Z,45.64
2023-05-12T00:08:18.094Z,45.63
2023-05-12T00:10:48.898Z,45.79
2023-05-12T00:13:23.908Z,45.79
2023-05-12T00:15:56.937Z,45.82
2023-05-12T00:18:28.834Z,45.95
2023-05-12T00:20:59.662Z,45.89
2023-05-12T00:23:30.434Z,46.04
2023-05-12T00:26:01.272Z,45.89
2023-05-12T00:28:32.004Z,46.07
2023-05-12T00:31:04.994Z,46.14
2023-05-12T00:33:35.802Z,46.12
2023-05-12T00:36:07.090Z,46.28
2023-05-12T00:38:38.215Z,46.25
2023-05-12T00:41:08.801Z,46.37
2023-05-12T00:43:39.507Z,46.64
2023-05-12T00:46:10.243Z,46.45
2023-05-12T00:48:41.005Z,46.79
2023-05-12T00:51:14.544Z,46.78
2023-05-12T00:53:49.863Z,46.83
2023-05-12T00:56:21.969Z,47.01
2023-05-12T00:58:52.874Z,47.22
2023-05-12T01:01:24.118Z,47.20
2023-05-12T01:03:55.152Z,47.23
2023-05-12T01:06:26.950Z,47.46
2023-05-12T01:08:57.612Z,47.50
2023-05-12T01:11:28.100Z,47.51
2023-05-12T01:13:58.926Z,47.79
2023-05-12T01:16:30.686Z,47.90
2023-05-12T01:19:01.336Z,47.92
2023-05-12T01:21:32.205Z,47.96
2023-05-12T01:24:03.689Z,47.89
2023-05-12T01:26:34.591Z,48.13
2023-05-12T01:29:05.805Z,48.18
2023-05-12T01:31:36.488Z,48.17
2023-05-12T01:34:07.271Z,48.30
2023-05-12T01:36:38.020Z,48.33
2023-05-12T01:39:08.860Z,48.32
2023-05-12T01:41:39.686Z,48.50
2023-05-12T01:44:10.722Z,48.42
2023-05-12T01:46:41.599Z,48.74
2023-05-12T01:49:12.386Z,48.61
2023-05-12T01:51:43.128Z,48.87
2023-05-12T01:54:13.839Z,48.77
2023-05-12T01:56:44.432Z,48.91
2023-05-12T01:59:15.214Z,49.13
2023-05-12T02:01:46.001Z,49.01
2023-05-12T02:04:16.810Z,49.27
2023-05-12T02:06:47.677Z,49.29
2023-05-12T02:09:18.289Z,49.46
2023-05-12T02:11:48.932Z,49.44
2023-05-12T02:14:19.787Z,49.43
2023-05-12T02:16:52.992Z,49.51
2023-05-12T02:19:23.851Z,49.52
2023-05-12T02:21:54.945Z,49.64
2023-05-12T02:24:25.798Z,49.64
2023-05-12T02:26:56.539Z,49.89
2023-05-12T02:29:27.253Z,50.01
2023-05-12T02:31:58.094Z,50.04
2023-05-12T02:34:28.820Z,50.16
2023-05-12T02:36:59.935Z,50.16
2023-05-12T02:39:30.613Z,50.23
2023-05-12T02:42:01.476Z,50.19
2023-05-12T02:44:32.192Z,50.33
2023-05-12T02:47:02.922Z,50.30
2023-05-12T02:49:33.736Z,50.55
2023-05-12T02:52:04.552Z,50.68
2023-05-12T02:54:35.385Z,50.72
2023-05-12T02:57:07.619Z,50.75
2023-05-12T02:59:38.198Z,50.86
2023-05-12T03:02:08.995Z,51.00
2023-05-12T03:04:39.848Z,51.05
2023-05-12T03:07:10.526Z,51.23
2023-05-12T03:09:41.266Z,51.25
2023-05-12T03:12:12.224Z,51.45
2023-05-12T03:14:43.007Z,51.42
2023-05-12T03:17:13.843Z,51.41
2023-05-12T03:19:44.632Z,51.61
2023-05-12T03:22:15.488Z,51.69
2023-05-12T03:24:46.715Z,51.88
2023-05-12T03:27:17.350Z,51.76
2023-05-12T03:29:48.105Z,51.95
2023-05-12T03:32:18.721Z,52.03
2023-05-12T03:34:49.575Z,52.15
2023-05-12T03:37:20.491Z,52.15
2023-05-12T03:39:51.072Z,52.33
2023-05-12T03:42:22.016Z,52.16
2023-05-12T03:44:53.100Z,52.24
2023-05-12T03:47:24.078Z,52.32
2023-05-12T03:49:54.830Z,52.26
2023-05-12T03:52:25.522Z,52.31
2023-05-12T03:54:56.620Z,52.46
2023-05-12T03:57:27.293Z,52.69
2023-05-12T03:59:57.908Z,52.78
2023-05-12T04:02:28.621Z,52.79
2023-05-12T04:04:59.357Z,52.86
2023-05-12T04:07:30.085Z,52.97
2023-05-12T04:10:00.803Z,53.06
2023-05-12T04:12:31.518Z,53.07
2023-05-12T04:15:03.046Z,53.09
2023-05-12T04:17:33.683Z,53.21
2023-05-12T04:20:04.497Z,53.20
2023-05-12T04:22:35.156Z,53.33
2023-05-12T04:25:06.146Z,53.40
2023-05-12T04:27:36.731Z,53.59
2023-05-12T04:30:08.574Z,53.58
2023-05-12T04:32:39.306Z,53.54
2023-05-12T04:35:10.514Z,53.68
2023-05-12T04:37:41.206Z,53.71
2023-05-12T04:40:12.319Z,53.65
2023-05-12T04:42:43.139Z,53.59
2023-05-12T04:45:14.158Z,53.66
2023-05-12T04:47:44.716Z,53.71
2023-05-12T04:50:15.790Z,53.73
2023-05-12T04:52:46.804Z,53.91
2023-05-12T04:55:17.530Z,53.87
2023-05-12T04:57:48.214Z,53.76
2023-05-12T05:00:18.957Z,53.84
2023-05-12T05:02:49.722Z,53.80
2023-05-12T05:05:20.748Z,53.79
2023-05-12T05:07:51.530Z,53.90
2023-05-12T05:10:22.235Z,53.80
2023-05-12T05:12:52.850Z,53.90
2023-05-12T05:15:23.836Z,53.87
2023-05-12T05:17:54.607Z,53.95
2023-05-12T05:20:28.912Z,53.77
2023-05-12T05:23:00.063Z,53.82
2023-05-12T05:25:30.874Z,53.83
2023-05-12T05:28:01.547Z,53.74
2023-05-12T05:30:32.185Z,53.79
2023-05-12T05:33:03.058Z,53.78
2023-05-12T05:35:33.825Z,53.78
2023-05-12T05:38:04.692Z,53.83
2023-05-12T05:40:45.442Z,53.88
2023-05-12T05:43:19.942Z,53.72
2023-05-12T05:45:50.769Z,53.67
2023-05-12T05:48:21.909Z,53.55
2023-05-12T05:50:52.860Z,53.62
2023-05-12T05:53:23.603Z,53.71
2023-05-12T05:55:54.400Z,53.67
2023-05-12T05:58:25.177Z,53.48
2023-05-12T06:00:55.831Z,53.48
2023-05-12T06:03:26.931Z,53.35
2023-05-12T06:05:57.744Z,53.42
2023-05-12T06:08:28.379Z,53.49
2023-05-12T06:10:59.154Z,53.39
2023-05-12T06:13:29.890Z,53.10
2023-05-12T06:16:00.730Z,53.24
2023-05-12T06:18:33.912Z,53.08
2023-05-12T06:21:04.785Z,53.01
2023-05-12T06:23:35.661Z,53.07
2023-05-12T06:26:07.858Z,53.14
2023-05-12T06:28:38.554Z,53.01
2023-05-12T06:31:09.916Z,52.95
2023-05-12T06:33:40.532Z,52.84
2023-05-12T06:36:12.557Z,52.79
2023-05-12T06:38:43.289Z,52.68
2023-05-12T06:41:13.938Z,52.58
2023-05-12T06:43:44.713Z,52.60
2023-05-12T06:46:15.817Z,52.64
2023-05-12T06:48:46.524Z,52.76
2023-05-12T06:51:17.188Z,52.66
2023-05-12T06:53:47.943Z,52.59
2023-05-12T06:56:18.714Z,52.52
2023-05-12T06:58:49.366Z,52.29
2023-05-12T07:01:20.157Z,52.34
2023-05-12T07:03:51.885Z,52.39
2023-05-12T07:06:22.654Z,52.30
2023-05-12T07:08:53.371Z,52.28
2023-05-12T07:11:24.148Z,52.16
2023-05-12T07:13:54.849Z,52.07
2023-05-12T07:16:25.531Z,52.15
2023-05-12T07:18:56.534Z,52.16
2023-05-12T07:21:27.456Z,51.92
2023-05-12T07:23:58.107Z,52.02
2023-05-12T07:26:29.584Z,51.95
2023-05-12T07:29:01.142Z,51.87
2023-05-12T07:31:33.867Z,51.86
2023-05-12T07:34:04.804Z,51.79
2023-05-12T07:36:35.668Z,51.71
2023-05-12T07:39:06.344Z,51.57
2023-05-12T07:41:39.192Z,51.36
2023-05-12T07:44:09.757Z,51.15
2023-05-12T07:46:41.732Z,51.05
2023-05-12T07:49:13.451Z,50.94
2023-05-12T07:51:44.151Z,50.96
2023-05-12T07:54:14.908Z,51.10
2023-05-12T07:56:45.776Z,50.97
2023-05-12T07:59:16.551Z,50.94
2023-05-12T08:01:47.261Z,50.25
2023-05-12T08:04:18.089Z,50.29
2023-05-12T08:06:48.752Z,50.01
2023-05-12T08:09:19.405Z,50.13
2023-05-12T08:11:51.828Z,50.18
2023-05-12T08:14:23.114Z,50.14
2023-05-12T08:16:54.010Z,49.86
2023-05-12T08:19:24.583Z,49.82
2023-05-12T08:21:55.431Z,49.40
2023-05-12T08:24:26.181Z,49.25
2023-05-12T08:26:56.968Z,49.31
2023-05-12T08:29:27.695Z,49.39
2023-05-12T08:31:58.755Z,49.47
2023-05-12T08:34:29.449Z,49.37
2023-05-12T08:37:00.075Z,49.36
2023-05-12T08:39:31.566Z,49.20
2023-05-12T08:42:09.459Z,48.62
2023-05-12T08:44:40.125Z,48.63
2023-05-12T08:47:11.014Z,48.50
2023-05-12T08:49:41.742Z,48.55
2023-05-12T08:52:12.758Z,48.43
2023-05-12T08:54:55.089Z,48.46
2023-05-12T08:57:29.457Z,48.36
2023-05-12T09:00:00.593Z,48.08
2023-05-12T09:02:44.668Z,47.94
2023-05-12T09:05:19.837Z,47.81
2023-05-12T09:07:51.006Z,47.89
2023-05-12T09:10:34.481Z,47.90
2023-05-12T09:13:15.947Z,47.63
2023-05-12T09:15:46.975Z,47.58
2023-05-12T09:18:17.610Z,47.49
2023-05-12T09:20:48.221Z,47.27
2023-05-12T09:23:22.319Z,47.17
2023-05-12T09:26:02.519Z,47.33
2023-05-12T09:28:44.206Z,47.16
2023-05-12T09:31:18.721Z,47.05
2023-05-12T09:33:49.655Z,46.58
2023-05-12T09:36:21.383Z,46.52
2023-05-12T09:39:04.653Z,46.77
2023-05-12T09:41:37.836Z,46.94
2023-05-12T09:44:08.920Z,46.84
2023-05-12T09:46:41.062Z,46.57
2023-05-12T09:49:11.894Z,46.59
2023-05-12T09:51:42.651Z,46.39
2023-05-12T09:54:14.095Z,46.51
2023-05-12T09:56:44.851Z,46.34
2023-05-12T09:59:15.564Z,46.28
2023-05-12T10:01:46.326Z,46.38
2023-05-12T10:04:17.348Z,46.23
2023-05-12T10:06:48.001Z,46.30
2023-05-12T10:09:20.790Z,46.26
2023-05-12T10:11:53.815Z,46.14
2023-05-12T10:14:25.058Z,46.13
2023-05-12T10:16:56.073Z,46.08
2023-05-12T10:19:26.945Z,46.04
2023-05-12T10:21:57.716Z,45.96
2023-05-12T10:24:29.264Z,45.96
2023-05-12T10:26:59.940Z,46.04
2023-05-12T10:29:33.016Z,45.90
2023-05-12T10:32:04.154Z,45.88
2023-05-12T10:34:35.836Z,45.83
2023-05-12T10:37:08.682Z,45.83
2023-05-12T10:39:39.785Z,45.77
2023-05-12T10:42:10.885Z,45.66
2023-05-12T10:44:50.646Z,45.61
2023-05-12T10:47:22.870Z,45.63
2023-05-12T10:49:56.696Z,45.59
2023-05-12T10:52:27.283Z,45.39
2023-05-12T10:55:02.780Z,45.37
2023-05-12T10:57:34.536Z,45.33
2023-05-12T11:00:06.086Z,45.30
2023-05-12T11:02:38.508Z,45.32
2023-05-12T11:05:13.505Z,45.34
2023-05-12T11:07:48.258Z,45.15
2023-05-12T11:10:19.711Z,45.15
2023-05-12T11:12:50.711Z,44.69
2023-05-12T11:15:21.826Z,44.67
2023-05-12T11:17:52.887Z,44.31
2023-05-12T11:20:29.479Z,44.12
2023-05-12T11:23:01.639Z,44.00
2023-05-12T11:25:32.227Z,43.83
2023-05-12T11:28:03.597Z,43.77
2023-05-12T11:30:34.548Z,43.64
2023-05-12T11:33:05.333Z,43.51
2023-05-12T11:35:36.152Z,43.40
2023-05-12T11:38:15.688Z,43.35
2023-05-12T11:40:46.735Z,43.17
2023-05-12T11:43:21.166Z,43.02
2023-05-12T11:45:52.283Z,42.84
2023-05-12T11:48:23.574Z,42.72
2023-05-12T11:50:57.157Z,42.96
2023-05-12T11:53:28.107Z,42.58
2023-05-12T11:55:59.370Z,42.59
2023-05-12T11:58:30.909Z,42.34
2023-05-12T12:01:09.732Z,42.07
2023-05-12T12:03:48.825Z,42.10
2023-05-12T12:06:19.811Z,42.16
2023-05-12T12:08:53.882Z,41.69
2023-05-12T12:11:26.891Z,41.67
2023-05-12T12:13:58.605Z,41.85
2023-05-12T12:16:29.843Z,41.70
2023-05-12T12:19:00.767Z,41.62
2023-05-12T12:21:31.490Z,41.38
2023-05-12T12:24:02.245Z,41.38
2023-05-12T12:26:34.455Z,41.36
2023-05-12T12:29:05.326Z,41.13
2023-05-12T12:31:36.683Z,40.99
2023-05-12T12:34:07.502Z,40.85
2023-05-12T12:36:38.370Z,40.82
2023-05-12T12:39:10.625Z,40.75
2023-05-12T12:41:41.467Z,40.78
2023-05-12T12:44:12.132Z,40.59
2023-05-12T12:46:42.767Z,40.50
2023-05-12T12:49:13.536Z,40.71
2023-05-12T12:51:46.776Z,40.69
2023-05-12T12:54:18.179Z,40.37
2023-05-12T12:56:48.906Z,40.27
2023-05-12T12:59:19.649Z,40.39
2023-05-12T13:01:50.344Z,40.35
2023-05-12T13:04:23.230Z,40.32
2023-05-12T13:06:54.011Z,40.24
2023-05-12T13:09:24.726Z,40.24
2023-05-12T13:11:55.441Z,40.23
2023-05-12T13:14:26.300Z,39.96
2023-05-12T13:16:57.050Z,40.19
2023-05-12T13:19:27.830Z,40.14
2023-05-12T13:21:59.082Z,40.02
2023-05-12T13:24:29.893Z,39.92
2023-05-12T13:27:00.673Z,40.12
2023-05-12T13:29:31.544Z,40.05
2023-05-12T13:32:02.852Z,40.09
2023-05-12T13:34:33.703Z,39.85
2023-05-12T13:37:04.531Z,39.85
2023-05-12T13:39:38.090Z,39.90
2023-05-12T13:42:09.166Z,39.76
2023-05-12T13:44:40.001Z,39.81
2023-05-12T13:47:11.953Z,39.88
2023-05-12T13:49:42.795Z,39.85
2023-05-12T13:52:13.575Z,39.87
2023-05-12T13:54:44.350Z,39.70
2023-05-12T13:57:15.186Z,39.63
2023-05-12T13:59:45.912Z,39.55
2023-05-12T14:02:16.825Z,39.57
2023-05-12T14:04:47.553Z,39.63
2023-05-12T14:07:18.795Z,39.61
2023-05-12T14:09:50.059Z,39.48
2023-05-12T14:12:20.855Z,39.55
2023-05-12T14:14:52.331Z,39.52
2023-05-12T14:17:23.105Z,39.64
2023-05-12T14:19:54.025Z,39.66
2023-05-12T14:22:26.426Z,39.56
2023-05-12T14:24:57.924Z,39.40
2023-05-12T14:27:29.211Z,39.25
2023-05-12T14:30:00.010Z,39.06
2023-05-12T14:32:30.993Z,38.89
2023-05-12T14:35:02.183Z,38.99
2023-05-12T14:37:34.103Z,38.92
2023-05-12T14:40:05.398Z,38.80
2023-05-12T14:42:36.407Z,38.62
2023-05-12T14:45:08.135Z,38.68
2023-05-12T14:47:39.884Z,38.70
2023-05-12T14:50:11.838Z,38.77
2023-05-12T14:52:42.560Z,38.72
2023-05-12T14:55:13.825Z,38.72
2023-05-12T14:57:45.305Z,38.57
2023-05-12T15:00:16.666Z,38.53
2023-05-12T15:02:47.521Z,38.27
2023-05-12T15:05:18.385Z,38.21
2023-05-12T15:07:49.009Z,37.95
2023-05-12T15:10:19.715Z,37.85
2023-05-12T15:12:51.703Z,37.88
2023-05-12T15:15:24.025Z,38.07
2023-05-12T15:17:54.830Z,37.87
2023-05-12T15:20:26.308Z,37.78
2023-05-12T15:22:58.981Z,37.87
2023-05-12T15:25:29.863Z,37.83
2023-05-12T15:28:00.704Z,37.77
2023-05-12T15:30:32.226Z,37.78
2023-05-12T15:33:06.219Z,37.67
2023-05-12T15:35:37.413Z,37.58
2023-05-12T15:38:08.493Z,37.57
2023-05-12T15:40:40.356Z,37.43
2023-05-12T15:43:11.137Z,37.43
2023-05-12T15:45:41.954Z,37.45
2023-05-12T15:48:12.953Z,37.57
2023-05-12T15:50:44.780Z,37.48
2023-05-12T15:53:15.797Z,37.41
2023-05-12T15:55:46.749Z,37.47
2023-05-12T15:58:19.715Z,37.50
2023-05-12T16:00:50.406Z,37.44
2023-05-12T16:03:21.168Z,37.45
2023-05-12T16:05:52.118Z,37.47
2023-05-12T16:08:24.148Z,37.50
2023-05-12T16:10:54.746Z,37.36
2023-05-12T16:13:25.374Z,37.43
2023-05-12T16:15:56.072Z,37.35
2023-05-12T16:18:26.759Z,37.34
2023-05-12T16:20:57.909Z,37.40
2023-05-12T16:23:28.630Z,37.31
2023-05-12T16:25:59.477Z,37.36
2023-05-12T16:28:30.240Z,37.24
2023-05-12T16:31:01.434Z,37.26
2023-05-12T16:33:32.184Z,37.25
2023-05-12T16:36:02.867Z,37.34
2023-05-12T16:38:34.909Z,37.30
2023-05-12T16:41:08.802Z,37.17
2023-05-12T16:43:41.666Z,37.25
2023-05-12T16:46:12.335Z,37.24
2023-05-12T16:48:43.369Z,37.28
2023-05-12T16:51:14.238Z,37.33
2023-05-12T16:53:47.323Z,37.33
2023-05-12T16:56:18.182Z,37.28
2023-05-12T16:58:48.827Z,37.26
2023-05-12T17:01:19.616Z,37.26
2023-05-12T17:03:50.830Z,37.35
2023-05-12T17:06:22.196Z,37.45
2023-05-12T17:08:54.934Z,37.39
2023-05-12T17:16:45.952Z,37.39
2023-05-12T17:19:16.569Z,37.40
2023-05-12T17:21:55.669Z,37.40
2023-05-12T17:24:27.991Z,37.35
2023-05-12T17:26:59.667Z,37.44
2023-05-12T17:29:31.808Z,37.38
2023-05-12T17:32:06.014Z,37.44
2023-05-12T17:34:37.348Z,37.44
2023-05-12T17:37:08.558Z,37.40
2023-05-12T17:39:42.099Z,37.38
2023-05-12T17:42:14.575Z,37.36
2023-05-12T17:44:45.380Z,37.38
2023-05-12T17:47:16.797Z,37.37
2023-05-12T17:49:50.264Z,37.36
2023-05-12T17:52:21.051Z,37.38
2023-05-12T17:54:52.568Z,37.34
2023-05-12T17:57:23.264Z,37.36
2023-05-12T17:59:54.324Z,37.37
2023-05-12T18:02:25.359Z,37.30
2023-05-12T18:04:56.216Z,37.42
2023-05-12T18:07:27.520Z,37.29
2023-05-12T18:09:58.131Z,37.37
2023-05-12T18:12:30.353Z,37.35
2023-05-12T18:15:01.109Z,37.37
2023-05-12T18:17:34.756Z,37.39
2023-05-12T18:20:06.867Z,37.40
2023-05-12T18:22:37.632Z,37.39
2023-05-12T18:25:10.133Z,37.35
2023-05-12T18:27:40.944Z,37.33
2023-05-12T18:30:14.120Z,37.39
2023-05-12T18:32:49.968Z,37.39
2023-05-12T18:35:29.168Z,37.32
2023-05-12T18:37:59.964Z,37.32
2023-05-12T18:40:32.316Z,37.24
2023-05-12T18:43:03.271Z,37.29
2023-05-12T18:45:33.978Z,37.21
2023-05-12T18:48:08.735Z,37.15
2023-05-12T18:50:39.990Z,37.21
2023-05-12T18:53:10.985Z,37.27
2023-05-12T18:55:41.640Z,37.14
2023-05-12T18:58:12.450Z,37.09
2023-05-12T19:00:43.257Z,37.11
2023-05-12T19:03:13.962Z,37.11
2023-05-12T19:05:46.459Z,37.00
2023-05-12T19:08:19.204Z,37.02
2023-05-12T19:10:50.349Z,37.06
2023-05-12T19:13:21.066Z,36.97
2023-05-12T19:15:51.721Z,36.95
2023-05-12T19:18:23.367Z,36.90
2023-05-12T19:20:54.100Z,36.88
2023-05-12T19:23:25.670Z,36.88
2023-05-12T19:25:56.438Z,36.92
2023-05-12T19:28:27.273Z,36.80
2023-05-12T19:30:58.110Z,36.80
2023-05-12T19:33:29.485Z,36.78
2023-05-12T19:36:00.229Z,36.84
2023-05-12T19:38:33.259Z,36.75
2023-05-12T19:41:04.071Z,36.71
2023-05-12T19:43:34.880Z,36.69
2023-05-12T19:46:05.721Z,36.67
2023-05-12T19:48:36.499Z,36.66
2023-05-12T19:51:07.178Z,36.60
2023-05-12T19:53:37.895Z,36.65
2023-05-12T19:56:08.556Z,36.69
2023-05-12T19:58:39.646Z,36.76
2023-05-12T20:01:10.391Z,36.74
2023-05-12T20:03:41.360Z,36.63
2023-05-12T20:06:12.048Z,36.60
2023-05-12T20:08:42.842Z,36.71
2023-05-12T20:11:13.667Z,36.71
2023-05-12T20:13:46.838Z,36.60
2023-05-12T20:16:17.599Z,36.59
2023-05-12T20:18:48.242Z,36.61
2023-05-12T20:21:19.100Z,36.66
2023-05-12T20:23:49.931Z,36.66
2023-05-12T20:26:20.815Z,36.70
2023-05-12T20:28:51.648Z,36.78
2023-05-12T20:31:23.053Z,36.72
2023-05-12T20:33:55.149Z,36.71
2023-05-12T20:36:25.798Z,36.76
2023-05-12T20:38:56.585Z,36.77
2023-05-12T20:41:28.041Z,36.70
2023-05-12T20:43:58.669Z,36.72
2023-05-12T20:46:30.474Z,36.77
2023-05-12T20:49:01.121Z,36.80
2023-05-12T20:51:32.650Z,36.70
2023-05-12T20:54:03.333Z,36.72
2023-05-12T20:56:34.041Z,36.74
2023-05-12T20:59:04.814Z,36.80
2023-05-12T21:01:35.370Z,36.74
2023-05-12T21:04:06.342Z,36.72
2023-05-12T21:06:37.342Z,36.90
2023-05-12T21:09:08.170Z,36.80
2023-05-12T21:11:38.874Z,36.84
2023-05-12T21:14:09.621Z,36.78
2023-05-12T21:16:40.452Z,36.85
2023-05-12T21:19:11.326Z,36.80
2023-05-12T21:21:42.068Z,36.68
2023-05-12T21:24:12.798Z,36.74
2023-05-12T21:26:43.881Z,36.82
2023-05-12T21:29:14.975Z,36.85
2023-05-12T21:31:47.509Z,36.86
2023-05-12T21:34:18.316Z,36.87
2023-05-12T21:36:49.062Z,36.89
2023-05-12T21:39:19.824Z,36.89
2023-05-12T21:41:50.559Z,36.83
2023-05-12T21:44:21.317Z,36.89
2023-05-12T21:46:52.038Z,36.89
2023-05-12T21:49:22.788Z,36.86
2023-05-12T21:51:53.888Z,36.96
2023-05-12T21:54:24.670Z,37.04
2023-05-12T21:56:55.389Z,37.19
2023-05-12T21:59:26.244Z,37.10
2023-05-12T22:01:57.050Z,37.20
2023-05-12T22:04:27.932Z,37.31
2023-05-12T22:06:58.701Z,37.36
2023-05-12T22:09:31.209Z,37.29
2023-05-12T22:12:02.106Z,37.41
2023-05-12T22:14:32.816Z,37.37
2023-05-12T22:17:03.634Z,37.43
2023-05-12T22:19:34.355Z,37.61
2023-05-12T22:22:05.174Z,37.70
2023-05-12T22:24:35.857Z,37.77
2023-05-12T22:27:06.978Z,37.85
2023-05-12T22:29:37.848Z,37.89
2023-05-12T22:32:08.722Z,37.92
2023-05-12T22:34:39.423Z,37.96
2023-05-12T22:37:10.138Z,38.03
2023-05-12T22:39:40.907Z,38.05
2023-05-12T22:42:11.655Z,38.01
2023-05-12T22:44:42.354Z,38.07
2023-05-12T22:47:13.060Z,38.10
2023-05-12T22:49:43.840Z,38.31
2023-05-12T22:52:14.474Z,38.39
2023-05-12T22:54:45.122Z,38.44
2023-05-12T22:57:15.877Z,38.58
2023-05-12T22:59:46.437Z,38.53
2023-05-12T23:02:17.599Z,38.53
2023-05-12T23:04:48.365Z,38.64
2023-05-12T23:07:19.056Z,38.61
2023-05-12T23:09:49.693Z,38.78
2023-05-12T23:12:20.660Z,38.85
2023-05-12T23:14:51.685Z,38.95
2023-05-12T23:17:22.405Z,38.85
2023-05-12T23:19:53.600Z,39.03
2023-05-12T23:22:24.087Z,39.00
2023-05-12T23:24:55.053Z,39.06
2023-05-12T23:27:25.616Z,39.14
2023-05-12T23:29:56.412Z,39.29
2023-05-12T23:32:27.335Z,39.28
2023-05-12T23:34:58.420Z,39.39
2023-05-12T23:37:29.220Z,39.45
2023-05-12T23:40:00.046Z,39.56
2023-05-12T23:42:30.679Z,39.46
2023-05-12T23:45:01.348Z,39.64
2023-05-12T23:47:32.155Z,39.67
2023-05-12T23:50:03.530Z,39.78
2023-05-12T23:52:34.282Z,39.77
2023-05-12T23:55:05.204Z,39.80
2023-05-12T23:57:35.895Z,39.94
